sensor_id;sensor_type;location;lat;lon;timestamp;temperature;humidity
81192;DHT22;70665;47.652;-2.730;2024-02-16T00:01:18;14.30;93.40
81192;DHT22;70665;47.652;-2.730;2024-02-16T00:03:43;14.30;93.60
81192;DHT22;70665;47.652;-2.730;2024-02-16T00:06:09;14.20;93.80
81192;DHT22;70665;47.652;-2.730;2024-02-16T00:08:35;14.30;93.60
81192;DHT22;70665;47.652;-2.730;2024-02-16T00:11:04;14.20;93.90
81192;DHT22;70665;47.652;-2.730;2024-02-16T00:13:30;14.30;94.00
81192;DHT22;70665;47.652;-2.730;2024-02-16T00:15:56;14.20;94.10
81192;DHT22;70665;47.652;-2.730;2024-02-16T00:18:22;14.30;93.90
81192;DHT22;70665;47.652;-2.730;2024-02-16T00:20:48;14.20;94.00
81192;DHT22;70665;47.652;-2.730;2024-02-16T00:23:14;14.30;94.20
81192;DHT22;70665;47.652;-2.730;2024-02-16T00:25:39;14.20;94.20
81192;DHT22;70665;47.652;-2.730;2024-02-16T00:28:06;14.20;94.20
81192;DHT22;70665;47.652;-2.730;2024-02-16T00:30:31;14.20;94.40
81192;DHT22;70665;47.652;-2.730;2024-02-16T00:32:57;14.20;94.20
81192;DHT22;70665;47.652;-2.730;2024-02-16T00:35:23;14.20;94.30
81192;DHT22;70665;47.652;-2.730;2024-02-16T00:37:48;14.10;94.60
81192;DHT22;70665;47.652;-2.730;2024-02-16T00:40:14;14.10;94.70
81192;DHT22;70665;47.652;-2.730;2024-02-16T00:42:40;14.20;94.70
81192;DHT22;70665;47.652;-2.730;2024-02-16T00:45:06;14.20;94.80
81192;DHT22;70665;47.652;-2.730;2024-02-16T00:47:31;14.20;94.60
81192;DHT22;70665;47.652;-2.730;2024-02-16T00:49:58;14.20;94.60
81192;DHT22;70665;47.652;-2.730;2024-02-16T00:52:24;14.20;94.40
81192;DHT22;70665;47.652;-2.730;2024-02-16T00:54:50;14.20;94.20
81192;DHT22;70665;47.652;-2.730;2024-02-16T00:57:15;14.20;94.10
81192;DHT22;70665;47.652;-2.730;2024-02-16T00:59:42;14.20;94.10
81192;DHT22;70665;47.652;-2.730;2024-02-16T01:02:07;14.20;94.60
81192;DHT22;70665;47.652;-2.730;2024-02-16T01:04:34;14.10;94.70
81192;DHT22;70665;47.652;-2.730;2024-02-16T01:07:00;14.10;95.10
81192;DHT22;70665;47.652;-2.730;2024-02-16T01:09:26;14.00;95.20
81192;DHT22;70665;47.652;-2.730;2024-02-16T01:11:52;14.00;95.30
81192;DHT22;70665;47.652;-2.730;2024-02-16T01:14:21;14.00;95.30
81192;DHT22;70665;47.652;-2.730;2024-02-16T01:16:46;13.90;95.50
81192;DHT22;70665;47.652;-2.730;2024-02-16T01:19:12;13.90;95.90
81192;DHT22;70665;47.652;-2.730;2024-02-16T01:21:38;13.90;95.90
81192;DHT22;70665;47.652;-2.730;2024-02-16T01:24:04;13.80;96.20
81192;DHT22;70665;47.652;-2.730;2024-02-16T01:26:30;13.80;96.50
81192;DHT22;70665;47.652;-2.730;2024-02-16T01:28:56;13.70;97.00
81192;DHT22;70665;47.652;-2.730;2024-02-16T01:31:23;13.70;97.20
81192;DHT22;70665;47.652;-2.730;2024-02-16T01:33:49;13.70;97.20
81192;DHT22;70665;47.652;-2.730;2024-02-16T01:36:14;13.60;97.30
81192;DHT22;70665;47.652;-2.730;2024-02-16T01:38:40;13.60;97.00
81192;DHT22;70665;47.652;-2.730;2024-02-16T01:41:06;13.60;96.50
81192;DHT22;70665;47.652;-2.730;2024-02-16T01:43:33;13.70;96.00
81192;DHT22;70665;47.652;-2.730;2024-02-16T01:45:58;13.70;95.60
81192;DHT22;70665;47.652;-2.730;2024-02-16T01:48:25;13.60;95.60
81192;DHT22;70665;47.652;-2.730;2024-02-16T01:50:54;13.70;95.70
81192;DHT22;70665;47.652;-2.730;2024-02-16T01:53:20;13.60;96.30
81192;DHT22;70665;47.652;-2.730;2024-02-16T01:55:47;13.60;96.20
81192;DHT22;70665;47.652;-2.730;2024-02-16T01:58:12;13.50;96.40
81192;DHT22;70665;47.652;-2.730;2024-02-16T02:00:38;13.40;96.80
81192;DHT22;70665;47.652;-2.730;2024-02-16T02:03:04;13.30;97.60
81192;DHT22;70665;47.652;-2.730;2024-02-16T02:05:32;13.30;97.90
81192;DHT22;70665;47.652;-2.730;2024-02-16T02:07:58;13.20;98.00
81192;DHT22;70665;47.652;-2.730;2024-02-16T02:10:24;13.10;98.60
81192;DHT22;70665;47.652;-2.730;2024-02-16T02:12:49;13.20;98.50
81192;DHT22;70665;47.652;-2.730;2024-02-16T02:15:15;13.20;98.70
81192;DHT22;70665;47.652;-2.730;2024-02-16T02:17:41;13.10;98.10
81192;DHT22;70665;47.652;-2.730;2024-02-16T02:20:07;13.00;97.90
81192;DHT22;70665;47.652;-2.730;2024-02-16T02:22:37;13.10;97.70
81192;DHT22;70665;47.652;-2.730;2024-02-16T02:25:04;13.00;97.50
81192;DHT22;70665;47.652;-2.730;2024-02-16T02:27:30;13.00;97.70
81192;DHT22;70665;47.652;-2.730;2024-02-16T02:29:56;13.00;97.40
81192;DHT22;70665;47.652;-2.730;2024-02-16T02:32:22;13.00;97.40
81192;DHT22;70665;47.652;-2.730;2024-02-16T02:34:47;13.10;97.70
81192;DHT22;70665;47.652;-2.730;2024-02-16T02:37:13;13.10;97.40
81192;DHT22;70665;47.652;-2.730;2024-02-16T02:39:39;13.10;97.20
81192;DHT22;70665;47.652;-2.730;2024-02-16T02:42:05;13.10;97.10
81192;DHT22;70665;47.652;-2.730;2024-02-16T02:44:32;13.10;97.00
81192;DHT22;70665;47.652;-2.730;2024-02-16T02:46:57;13.00;97.10
81192;DHT22;70665;47.652;-2.730;2024-02-16T02:49:23;13.00;96.90
81192;DHT22;70665;47.652;-2.730;2024-02-16T02:51:49;13.10;96.70
81192;DHT22;70665;47.652;-2.730;2024-02-16T02:54:14;13.10;96.80
81192;DHT22;70665;47.652;-2.730;2024-02-16T02:56:40;13.10;96.80
81192;DHT22;70665;47.652;-2.730;2024-02-16T02:59:06;13.00;97.00
81192;DHT22;70665;47.652;-2.730;2024-02-16T03:01:31;13.10;96.80
81192;DHT22;70665;47.652;-2.730;2024-02-16T03:03:57;13.00;97.60
81192;DHT22;70665;47.652;-2.730;2024-02-16T03:06:25;12.90;97.40
81192;DHT22;70665;47.652;-2.730;2024-02-16T03:08:50;12.90;97.90
81192;DHT22;70665;47.652;-2.730;2024-02-16T03:11:16;13.00;97.70
81192;DHT22;70665;47.652;-2.730;2024-02-16T03:13:42;12.90;97.90
81192;DHT22;70665;47.652;-2.730;2024-02-16T03:16:08;13.00;97.80
81192;DHT22;70665;47.652;-2.730;2024-02-16T03:18:34;13.00;97.60
81192;DHT22;70665;47.652;-2.730;2024-02-16T03:21:00;12.90;97.60
81192;DHT22;70665;47.652;-2.730;2024-02-16T03:23:25;12.80;97.60
81192;DHT22;70665;47.652;-2.730;2024-02-16T03:25:51;12.80;97.80
81192;DHT22;70665;47.652;-2.730;2024-02-16T03:28:17;12.60;98.10
81192;DHT22;70665;47.652;-2.730;2024-02-16T03:30:44;12.60;98.10
81192;DHT22;70665;47.652;-2.730;2024-02-16T03:33:10;12.60;98.40
81192;DHT22;70665;47.652;-2.730;2024-02-16T03:35:36;12.60;98.40
81192;DHT22;70665;47.652;-2.730;2024-02-16T03:38:06;12.70;98.30
81192;DHT22;70665;47.652;-2.730;2024-02-16T03:40:32;12.60;98.10
81192;DHT22;70665;47.652;-2.730;2024-02-16T03:42:58;12.80;97.60
81192;DHT22;70665;47.652;-2.730;2024-02-16T03:45:23;12.80;97.50
81192;DHT22;70665;47.652;-2.730;2024-02-16T03:47:49;12.80;97.30
81192;DHT22;70665;47.652;-2.730;2024-02-16T03:50:18;12.80;97.00
81192;DHT22;70665;47.652;-2.730;2024-02-16T03:52:44;12.80;96.90
81192;DHT22;70665;47.652;-2.730;2024-02-16T03:55:09;12.80;96.90
81192;DHT22;70665;47.652;-2.730;2024-02-16T03:57:35;12.80;96.60
81192;DHT22;70665;47.652;-2.730;2024-02-16T04:00:01;12.80;96.70
81192;DHT22;70665;47.652;-2.730;2024-02-16T04:02:27;12.80;96.60
81192;DHT22;70665;47.652;-2.730;2024-02-16T04:04:53;12.90;96.50
81192;DHT22;70665;47.652;-2.730;2024-02-16T04:07:19;12.90;96.40
81192;DHT22;70665;47.652;-2.730;2024-02-16T04:09:44;12.90;96.30
81192;DHT22;70665;47.652;-2.730;2024-02-16T04:12:10;13.00;96.00
81192;DHT22;70665;47.652;-2.730;2024-02-16T04:14:36;12.80;96.10
81192;DHT22;70665;47.652;-2.730;2024-02-16T04:17:02;12.80;96.20
81192;DHT22;70665;47.652;-2.730;2024-02-16T04:19:28;12.80;96.40
81192;DHT22;70665;47.652;-2.730;2024-02-16T04:21:54;12.90;96.60
81192;DHT22;70665;47.652;-2.730;2024-02-16T04:24:20;12.90;96.60
81192;DHT22;70665;47.652;-2.730;2024-02-16T04:26:45;12.80;96.50
81192;DHT22;70665;47.652;-2.730;2024-02-16T04:29:11;12.80;96.70
81192;DHT22;70665;47.652;-2.730;2024-02-16T04:31:40;12.60;96.90
81192;DHT22;70665;47.652;-2.730;2024-02-16T04:34:10;12.70;97.00
81192;DHT22;70665;47.652;-2.730;2024-02-16T04:36:36;12.60;96.80
81192;DHT22;70665;47.652;-2.730;2024-02-16T04:39:01;12.60;97.00
81192;DHT22;70665;47.652;-2.730;2024-02-16T04:41:27;12.50;96.70
81192;DHT22;70665;47.652;-2.730;2024-02-16T04:43:53;12.70;96.70
81192;DHT22;70665;47.652;-2.730;2024-02-16T04:46:19;12.50;96.60
81192;DHT22;70665;47.652;-2.730;2024-02-16T04:48:45;12.50;96.30
81192;DHT22;70665;47.652;-2.730;2024-02-16T04:51:11;12.60;96.40
81192;DHT22;70665;47.652;-2.730;2024-02-16T04:53:37;12.60;96.10
81192;DHT22;70665;47.652;-2.730;2024-02-16T04:56:03;12.50;95.60
81192;DHT22;70665;47.652;-2.730;2024-02-16T04:58:28;12.40;94.90
81192;DHT22;70665;47.652;-2.730;2024-02-16T05:00:54;12.50;94.60
81192;DHT22;70665;47.652;-2.730;2024-02-16T05:03:20;12.50;94.40
81192;DHT22;70665;47.652;-2.730;2024-02-16T05:05:45;12.40;94.30
81192;DHT22;70665;47.652;-2.730;2024-02-16T05:08:11;12.30;94.50
81192;DHT22;70665;47.652;-2.730;2024-02-16T05:10:37;12.50;94.70
81192;DHT22;70665;47.652;-2.730;2024-02-16T05:13:03;12.40;94.10
81192;DHT22;70665;47.652;-2.730;2024-02-16T05:15:29;12.60;93.30
81192;DHT22;70665;47.652;-2.730;2024-02-16T05:17:55;12.40;92.20
81192;DHT22;70665;47.652;-2.730;2024-02-16T05:20:20;12.40;91.90
81192;DHT22;70665;47.652;-2.730;2024-02-16T05:22:46;12.10;91.50
81192;DHT22;70665;47.652;-2.730;2024-02-16T05:25:13;12.10;91.60
81192;DHT22;70665;47.652;-2.730;2024-02-16T05:27:39;12.10;91.10
81192;DHT22;70665;47.652;-2.730;2024-02-16T05:30:05;12.10;91.20
81192;DHT22;70665;47.652;-2.730;2024-02-16T05:32:36;11.80;91.00
81192;DHT22;70665;47.652;-2.730;2024-02-16T05:35:03;11.90;90.90
81192;DHT22;70665;47.652;-2.730;2024-02-16T05:37:30;11.80;90.70
81192;DHT22;70665;47.652;-2.730;2024-02-16T05:39:57;11.70;90.80
81192;DHT22;70665;47.652;-2.730;2024-02-16T05:42:34;11.60;90.70
81192;DHT22;70665;47.652;-2.730;2024-02-16T05:45:00;11.60;91.10
81192;DHT22;70665;47.652;-2.730;2024-02-16T05:47:25;11.50;91.20
81192;DHT22;70665;47.652;-2.730;2024-02-16T05:49:51;11.50;91.60
81192;DHT22;70665;47.652;-2.730;2024-02-16T05:52:17;11.50;91.90
81192;DHT22;70665;47.652;-2.730;2024-02-16T05:54:44;11.50;92.80
81192;DHT22;70665;47.652;-2.730;2024-02-16T05:57:10;11.40;92.80
81192;DHT22;70665;47.652;-2.730;2024-02-16T05:59:35;11.40;93.40
81192;DHT22;70665;47.652;-2.730;2024-02-16T06:02:01;11.30;93.20
81192;DHT22;70665;47.652;-2.730;2024-02-16T06:04:27;11.30;93.60
81192;DHT22;70665;47.652;-2.730;2024-02-16T06:06:53;11.30;93.60
81192;DHT22;70665;47.652;-2.730;2024-02-16T06:09:19;11.30;93.90
81192;DHT22;70665;47.652;-2.730;2024-02-16T06:11:45;11.20;94.30
81192;DHT22;70665;47.652;-2.730;2024-02-16T06:14:10;11.20;94.10
81192;DHT22;70665;47.652;-2.730;2024-02-16T06:16:36;11.10;94.20
81192;DHT22;70665;47.652;-2.730;2024-02-16T06:19:01;11.10;94.40
81192;DHT22;70665;47.652;-2.730;2024-02-16T06:21:27;11.10;94.60
81192;DHT22;70665;47.652;-2.730;2024-02-16T06:23:53;11.10;94.60
81192;DHT22;70665;47.652;-2.730;2024-02-16T06:26:18;11.00;94.80
81192;DHT22;70665;47.652;-2.730;2024-02-16T06:28:45;10.90;94.70
81192;DHT22;70665;47.652;-2.730;2024-02-16T06:31:12;10.90;94.80
81192;DHT22;70665;47.652;-2.730;2024-02-16T06:33:41;10.90;94.90
81192;DHT22;70665;47.652;-2.730;2024-02-16T06:36:07;10.90;95.00
81192;DHT22;70665;47.652;-2.730;2024-02-16T06:38:33;10.70;94.90
81192;DHT22;70665;47.652;-2.730;2024-02-16T06:40:58;10.80;94.70
81192;DHT22;70665;47.652;-2.730;2024-02-16T06:43:24;10.70;94.70
81192;DHT22;70665;47.652;-2.730;2024-02-16T06:45:49;10.80;94.70
81192;DHT22;70665;47.652;-2.730;2024-02-16T06:48:15;10.70;94.30
81192;DHT22;70665;47.652;-2.730;2024-02-16T06:50:41;10.70;94.60
81192;DHT22;70665;47.652;-2.730;2024-02-16T06:53:07;10.70;94.20
81192;DHT22;70665;47.652;-2.730;2024-02-16T06:55:33;10.60;94.30
81192;DHT22;70665;47.652;-2.730;2024-02-16T06:57:59;10.70;94.20
81192;DHT22;70665;47.652;-2.730;2024-02-16T07:00:24;10.70;94.10
81192;DHT22;70665;47.652;-2.730;2024-02-16T07:02:50;10.60;94.10
81192;DHT22;70665;47.652;-2.730;2024-02-16T07:05:16;10.60;94.40
81192;DHT22;70665;47.652;-2.730;2024-02-16T07:07:43;10.70;94.10
81192;DHT22;70665;47.652;-2.730;2024-02-16T07:10:08;10.70;93.70
81192;DHT22;70665;47.652;-2.730;2024-02-16T07:12:39;10.80;93.40
81192;DHT22;70665;47.652;-2.730;2024-02-16T07:15:05;10.70;93.40
81192;DHT22;70665;47.652;-2.730;2024-02-16T07:17:31;10.80;93.40
81192;DHT22;70665;47.652;-2.730;2024-02-16T07:19:56;10.70;93.30
81192;DHT22;70665;47.652;-2.730;2024-02-16T07:22:22;10.70;93.20
81192;DHT22;70665;47.652;-2.730;2024-02-16T07:24:47;10.70;93.40
81192;DHT22;70665;47.652;-2.730;2024-02-16T07:27:13;10.70;94.00
81192;DHT22;70665;47.652;-2.730;2024-02-16T07:29:39;10.60;94.30
81192;DHT22;70665;47.652;-2.730;2024-02-16T07:32:05;10.50;94.40
81192;DHT22;70665;47.652;-2.730;2024-02-16T07:34:31;10.50;94.80
81192;DHT22;70665;47.652;-2.730;2024-02-16T07:36:56;10.50;94.80
81192;DHT22;70665;47.652;-2.730;2024-02-16T07:39:22;10.40;94.90
81192;DHT22;70665;47.652;-2.730;2024-02-16T07:41:49;10.50;95.00
81192;DHT22;70665;47.652;-2.730;2024-02-16T07:44:14;10.40;95.00
81192;DHT22;70665;47.652;-2.730;2024-02-16T07:46:41;10.40;95.10
81192;DHT22;70665;47.652;-2.730;2024-02-16T07:49:07;10.40;95.20
81192;DHT22;70665;47.652;-2.730;2024-02-16T07:51:33;10.30;95.10
81192;DHT22;70665;47.652;-2.730;2024-02-16T07:53:58;10.40;94.90
81192;DHT22;70665;47.652;-2.730;2024-02-16T07:56:24;10.50;94.60
81192;DHT22;70665;47.652;-2.730;2024-02-16T07:58:49;10.40;94.40
81192;DHT22;70665;47.652;-2.730;2024-02-16T08:01:15;10.50;94.20
81192;DHT22;70665;47.652;-2.730;2024-02-16T08:03:41;10.50;94.30
81192;DHT22;70665;47.652;-2.730;2024-02-16T08:06:07;10.50;94.20
81192;DHT22;70665;47.652;-2.730;2024-02-16T08:08:32;10.50;94.30
81192;DHT22;70665;47.652;-2.730;2024-02-16T08:10:58;10.50;94.10
81192;DHT22;70665;47.652;-2.730;2024-02-16T08:13:24;10.60;94.10
81192;DHT22;70665;47.652;-2.730;2024-02-16T08:15:49;10.80;94.20
81192;DHT22;70665;47.652;-2.730;2024-02-16T08:18:17;10.80;93.20
81192;DHT22;70665;47.652;-2.730;2024-02-16T08:20:43;10.90;92.50
81192;DHT22;70665;47.652;-2.730;2024-02-16T08:23:09;11.00;92.60
81192;DHT22;70665;47.652;-2.730;2024-02-16T08:25:34;11.20;92.20
81192;DHT22;70665;47.652;-2.730;2024-02-16T08:28:00;11.20;91.50
81192;DHT22;70665;47.652;-2.730;2024-02-16T08:30:26;11.20;91.10
81192;DHT22;70665;47.652;-2.730;2024-02-16T08:32:52;11.30;90.60
81192;DHT22;70665;47.652;-2.730;2024-02-16T08:35:18;11.30;90.90
81192;DHT22;70665;47.652;-2.730;2024-02-16T08:37:45;11.10;90.50
81192;DHT22;70665;47.652;-2.730;2024-02-16T08:40:12;11.20;91.10
81192;DHT22;70665;47.652;-2.730;2024-02-16T08:42:40;11.30;90.90
81192;DHT22;70665;47.652;-2.730;2024-02-16T08:45:08;11.30;90.30
81192;DHT22;70665;47.652;-2.730;2024-02-16T08:47:33;11.30;90.40
81192;DHT22;70665;47.652;-2.730;2024-02-16T08:49:59;11.40;90.20
81192;DHT22;70665;47.652;-2.730;2024-02-16T08:52:25;11.40;90.20
81192;DHT22;70665;47.652;-2.730;2024-02-16T08:54:51;11.50;90.20
81192;DHT22;70665;47.652;-2.730;2024-02-16T08:57:17;11.50;89.90
81192;DHT22;70665;47.652;-2.730;2024-02-16T08:59:42;11.50;89.90
81192;DHT22;70665;47.652;-2.730;2024-02-16T09:02:09;11.60;89.80
81192;DHT22;70665;47.652;-2.730;2024-02-16T09:04:35;11.80;89.40
81192;DHT22;70665;47.652;-2.730;2024-02-16T09:07:02;11.70;88.90
81192;DHT22;70665;47.652;-2.730;2024-02-16T09:09:27;11.80;88.70
81192;DHT22;70665;47.652;-2.730;2024-02-16T09:11:53;12.00;88.30
81192;DHT22;70665;47.652;-2.730;2024-02-16T09:14:19;12.60;87.90
81192;DHT22;70665;47.652;-2.730;2024-02-16T09:16:48;12.70;87.10
81192;DHT22;70665;47.652;-2.730;2024-02-16T09:19:13;12.80;86.40
81192;DHT22;70665;47.652;-2.730;2024-02-16T09:21:39;12.90;86.40
81192;DHT22;70665;47.652;-2.730;2024-02-16T09:24:05;13.00;85.70
81192;DHT22;70665;47.652;-2.730;2024-02-16T09:26:36;13.10;85.40
81192;DHT22;70665;47.652;-2.730;2024-02-16T09:29:02;13.20;85.10
81192;DHT22;70665;47.652;-2.730;2024-02-16T09:31:27;13.30;85.50
81192;DHT22;70665;47.652;-2.730;2024-02-16T09:33:53;13.30;84.80
81192;DHT22;70665;47.652;-2.730;2024-02-16T09:36:19;13.50;84.60
81192;DHT22;70665;47.652;-2.730;2024-02-16T09:38:44;13.70;84.00
81192;DHT22;70665;47.652;-2.730;2024-02-16T09:41:10;13.80;83.40
81192;DHT22;70665;47.652;-2.730;2024-02-16T09:43:37;14.00;83.80
81192;DHT22;70665;47.652;-2.730;2024-02-16T09:46:04;14.00;83.30
81192;DHT22;70665;47.652;-2.730;2024-02-16T09:48:30;14.10;83.10
81192;DHT22;70665;47.652;-2.730;2024-02-16T09:50:57;14.30;82.90
81192;DHT22;70665;47.652;-2.730;2024-02-16T09:53:27;14.30;82.30
81192;DHT22;70665;47.652;-2.730;2024-02-16T09:55:53;14.30;82.60
81192;DHT22;70665;47.652;-2.730;2024-02-16T09:58:19;14.20;82.20
81192;DHT22;70665;47.652;-2.730;2024-02-16T10:00:48;14.10;82.30
81192;DHT22;70665;47.652;-2.730;2024-02-16T10:03:30;14.10;83.60
81192;DHT22;70665;47.652;-2.730;2024-02-16T10:06:06;14.20;83.10
81192;DHT22;70665;47.652;-2.730;2024-02-16T10:08:33;14.10;82.20
81192;DHT22;70665;47.652;-2.730;2024-02-16T10:11:03;13.80;81.40
81192;DHT22;70665;47.652;-2.730;2024-02-16T10:13:30;13.70;81.90
81192;DHT22;70665;47.652;-2.730;2024-02-16T10:16:06;13.60;81.50
81192;DHT22;70665;47.652;-2.730;2024-02-16T10:18:38;13.70;82.30
81192;DHT22;70665;47.652;-2.730;2024-02-16T10:21:04;13.70;81.30
81192;DHT22;70665;47.652;-2.730;2024-02-16T10:23:30;13.90;81.10
81192;DHT22;70665;47.652;-2.730;2024-02-16T10:25:56;13.80;80.90
81192;DHT22;70665;47.652;-2.730;2024-02-16T10:28:24;14.00;80.30
81192;DHT22;70665;47.652;-2.730;2024-02-16T10:31:00;13.90;79.20
81192;DHT22;70665;47.652;-2.730;2024-02-16T10:33:27;14.10;81.10
81192;DHT22;70665;47.652;-2.730;2024-02-16T10:35:56;14.10;79.20
81192;DHT22;70665;47.652;-2.730;2024-02-16T10:38:25;14.30;79.20
81192;DHT22;70665;47.652;-2.730;2024-02-16T10:40:53;14.40;80.00
81192;DHT22;70665;47.652;-2.730;2024-02-16T10:43:20;14.60;78.90
81192;DHT22;70665;47.652;-2.730;2024-02-16T10:45:47;14.80;77.70
81192;DHT22;70665;47.652;-2.730;2024-02-16T10:48:17;14.90;78.40
81192;DHT22;70665;47.652;-2.730;2024-02-16T10:50:43;15.00;76.10
81192;DHT22;70665;47.652;-2.730;2024-02-16T10:53:19;15.10;75.80
81192;DHT22;70665;47.652;-2.730;2024-02-16T10:55:46;15.30;76.60
81192;DHT22;70665;47.652;-2.730;2024-02-16T10:58:12;15.20;75.40
81192;DHT22;70665;47.652;-2.730;2024-02-16T11:03:17;15.50;77.10
81192;DHT22;70665;47.652;-2.730;2024-02-16T11:05:43;15.60;76.20
81192;DHT22;70665;47.652;-2.730;2024-02-16T11:08:15;15.60;72.40
81192;DHT22;70665;47.652;-2.730;2024-02-16T11:10:53;15.60;74.90
81192;DHT22;70665;47.652;-2.730;2024-02-16T11:13:22;15.40;72.70
81192;DHT22;70665;47.652;-2.730;2024-02-16T11:15:57;15.30;75.40
81192;DHT22;70665;47.652;-2.730;2024-02-16T11:18:24;15.30;73.40
81192;DHT22;70665;47.652;-2.730;2024-02-16T11:20:49;15.30;73.00
81192;DHT22;70665;47.652;-2.730;2024-02-16T11:23:15;15.60;74.60
81192;DHT22;70665;47.652;-2.730;2024-02-16T11:25:50;15.50;69.70
81192;DHT22;70665;47.652;-2.730;2024-02-16T11:28:19;15.50;70.40
81192;DHT22;70665;47.652;-2.730;2024-02-16T11:30:45;15.50;70.60
81192;DHT22;70665;47.652;-2.730;2024-02-16T11:33:11;15.60;70.90
81192;DHT22;70665;47.652;-2.730;2024-02-16T11:35:36;15.70;71.30
81192;DHT22;70665;47.652;-2.730;2024-02-16T11:38:02;15.70;67.80
81192;DHT22;70665;47.652;-2.730;2024-02-16T11:40:28;15.80;70.80
81192;DHT22;70665;47.652;-2.730;2024-02-16T11:42:59;16.10;71.70
81192;DHT22;70665;47.652;-2.730;2024-02-16T11:45:25;16.20;68.30
81192;DHT22;70665;47.652;-2.730;2024-02-16T11:48:02;16.20;66.90
81192;DHT22;70665;47.652;-2.730;2024-02-16T11:50:28;15.90;65.40
81192;DHT22;70665;47.652;-2.730;2024-02-16T11:52:53;15.60;66.90
81192;DHT22;70665;47.652;-2.730;2024-02-16T11:55:20;15.70;69.90
81192;DHT22;70665;47.652;-2.730;2024-02-16T11:57:46;15.70;71.50
81192;DHT22;70665;47.652;-2.730;2024-02-16T12:00:16;15.70;69.50
81192;DHT22;70665;47.652;-2.730;2024-02-16T12:02:41;15.80;68.20
81192;DHT22;70665;47.652;-2.730;2024-02-16T12:05:07;15.70;66.40
81192;DHT22;70665;47.652;-2.730;2024-02-16T12:07:33;15.60;68.80
81192;DHT22;70665;47.652;-2.730;2024-02-16T12:10:02;15.50;67.80
81192;DHT22;70665;47.652;-2.730;2024-02-16T12:12:31;15.40;68.10
81192;DHT22;70665;47.652;-2.730;2024-02-16T12:14:57;15.30;68.50
81192;DHT22;70665;47.652;-2.730;2024-02-16T12:17:23;15.30;68.60
81192;DHT22;70665;47.652;-2.730;2024-02-16T12:19:50;15.50;69.20
81192;DHT22;70665;47.652;-2.730;2024-02-16T12:22:22;15.40;65.50
81192;DHT22;70665;47.652;-2.730;2024-02-16T12:24:49;15.30;66.60
81192;DHT22;70665;47.652;-2.730;2024-02-16T12:27:15;15.30;68.60
81192;DHT22;70665;47.652;-2.730;2024-02-16T12:29:41;15.50;69.90
81192;DHT22;70665;47.652;-2.730;2024-02-16T12:32:07;15.50;65.30
81192;DHT22;70665;47.652;-2.730;2024-02-16T12:34:35;15.60;68.10
81192;DHT22;70665;47.652;-2.730;2024-02-16T12:37:07;15.70;68.20
81192;DHT22;70665;47.652;-2.730;2024-02-16T12:39:36;15.70;68.80
81192;DHT22;70665;47.652;-2.730;2024-02-16T12:42:01;15.70;66.20
81192;DHT22;70665;47.652;-2.730;2024-02-16T12:44:28;15.70;67.70
81192;DHT22;70665;47.652;-2.730;2024-02-16T12:46:53;15.60;67.50
81192;DHT22;70665;47.652;-2.730;2024-02-16T12:49:19;15.70;65.50
81192;DHT22;70665;47.652;-2.730;2024-02-16T12:51:50;15.90;65.10
81192;DHT22;70665;47.652;-2.730;2024-02-16T12:54:17;16.00;63.20
81192;DHT22;70665;47.652;-2.730;2024-02-16T12:56:46;16.20;66.40
81192;DHT22;70665;47.652;-2.730;2024-02-16T12:59:12;16.60;64.60
81192;DHT22;70665;47.652;-2.730;2024-02-16T13:01:38;17.50;63.00
81192;DHT22;70665;47.652;-2.730;2024-02-16T13:04:03;17.70;62.20
81192;DHT22;70665;47.652;-2.730;2024-02-16T13:06:30;17.60;61.80
81192;DHT22;70665;47.652;-2.730;2024-02-16T13:08:56;16.90;60.40
81192;DHT22;70665;47.652;-2.730;2024-02-16T13:11:22;16.60;62.30
81192;DHT22;70665;47.652;-2.730;2024-02-16T13:13:47;16.90;64.10
81192;DHT22;70665;47.652;-2.730;2024-02-16T13:16:13;17.50;59.70
81192;DHT22;70665;47.652;-2.730;2024-02-16T13:18:39;17.60;58.50
81192;DHT22;70665;47.652;-2.730;2024-02-16T13:21:04;17.60;56.30
81192;DHT22;70665;47.652;-2.730;2024-02-16T13:23:30;17.30;57.50
81192;DHT22;70665;47.652;-2.730;2024-02-16T13:25:56;17.10;59.60
81192;DHT22;70665;47.652;-2.730;2024-02-16T13:28:22;16.60;58.90
81192;DHT22;70665;47.652;-2.730;2024-02-16T13:30:47;16.50;61.60
81192;DHT22;70665;47.652;-2.730;2024-02-16T13:33:13;16.60;64.10
81192;DHT22;70665;47.652;-2.730;2024-02-16T13:35:38;18.00;59.40
81192;DHT22;70665;47.652;-2.730;2024-02-16T13:38:04;19.60;57.60
81192;DHT22;70665;47.652;-2.730;2024-02-16T13:40:30;20.30;52.60
81192;DHT22;70665;47.652;-2.730;2024-02-16T13:42:56;20.60;53.40
81192;DHT22;70665;47.652;-2.730;2024-02-16T13:48:11;19.10;56.60
81192;DHT22;70665;47.652;-2.730;2024-02-16T13:50:37;18.50;60.30
81192;DHT22;70665;47.652;-2.730;2024-02-16T13:53:02;18.00;62.10
81192;DHT22;70665;47.652;-2.730;2024-02-16T13:55:28;17.60;57.80
81192;DHT22;70665;47.652;-2.730;2024-02-16T13:57:53;17.50;63.40
81192;DHT22;70665;47.652;-2.730;2024-02-16T14:00:19;17.10;60.40
81192;DHT22;70665;47.652;-2.730;2024-02-16T14:02:45;16.80;65.00
81192;DHT22;70665;47.652;-2.730;2024-02-16T14:05:11;16.30;62.80
81192;DHT22;70665;47.652;-2.730;2024-02-16T14:07:37;16.10;62.70
81192;DHT22;70665;47.652;-2.730;2024-02-16T14:10:02;16.50;61.40
81192;DHT22;70665;47.652;-2.730;2024-02-16T14:12:28;18.00;57.40
81192;DHT22;70665;47.652;-2.730;2024-02-16T14:14:54;18.10;58.00
81192;DHT22;70665;47.652;-2.730;2024-02-16T14:17:19;17.60;58.80
81192;DHT22;70665;47.652;-2.730;2024-02-16T14:19:45;17.30;63.30
81192;DHT22;70665;47.652;-2.730;2024-02-16T14:22:10;17.00;61.90
81192;DHT22;70665;47.652;-2.730;2024-02-16T14:24:37;17.00;63.60
81192;DHT22;70665;47.652;-2.730;2024-02-16T14:27:03;16.90;59.20
81192;DHT22;70665;47.652;-2.730;2024-02-16T14:29:29;16.90;63.80
81192;DHT22;70665;47.652;-2.730;2024-02-16T14:31:54;16.70;60.10
81192;DHT22;70665;47.652;-2.730;2024-02-16T14:34:20;16.60;58.60
81192;DHT22;70665;47.652;-2.730;2024-02-16T14:36:46;17.20;56.00
81192;DHT22;70665;47.652;-2.730;2024-02-16T14:39:12;18.60;60.20
81192;DHT22;70665;47.652;-2.730;2024-02-16T14:41:37;19.90;51.60
81192;DHT22;70665;47.652;-2.730;2024-02-16T14:44:03;20.30;49.30
81192;DHT22;70665;47.652;-2.730;2024-02-16T14:46:29;21.30;47.20
81192;DHT22;70665;47.652;-2.730;2024-02-16T14:48:54;22.30;50.20
81192;DHT22;70665;47.652;-2.730;2024-02-16T14:51:20;22.90;44.90
81192;DHT22;70665;47.652;-2.730;2024-02-16T14:53:45;22.90;44.10
81192;DHT22;70665;47.652;-2.730;2024-02-16T14:56:11;23.20;47.00
81192;DHT22;70665;47.652;-2.730;2024-02-16T14:58:37;22.50;45.50
81192;DHT22;70665;47.652;-2.730;2024-02-16T15:01:02;22.20;48.20
81192;DHT22;70665;47.652;-2.730;2024-02-16T15:03:29;21.20;47.50
81192;DHT22;70665;47.652;-2.730;2024-02-16T15:05:56;20.30;51.10
81192;DHT22;70665;47.652;-2.730;2024-02-16T15:08:21;21.20;49.70
81192;DHT22;70665;47.652;-2.730;2024-02-16T15:10:47;22.30;51.20
81192;DHT22;70665;47.652;-2.730;2024-02-16T15:13:13;23.00;50.50
81192;DHT22;70665;47.652;-2.730;2024-02-16T15:15:39;22.60;50.70